Terminal Aerodrome Forecast
Issued by NWS Wilmington, NC

Home | Current Version | Previous Version | Text Only | Print | Product List | Glossary On
Versions: 1 2 3 4 5 6 7 8 9 10 11 12 13 14 15 16 17 18 19 20 21 22 23 24 25 26 27
000
FTUS42 KILM 271741
TAFILM
TAF
KILM 271741Z 2718/2818 35013G20KT 5SM -RA BR BKN025
      TEMPO 2718/2720 2SM +SHRA SCT008 BKN015
     FM272000 36012G18KT 6SM -RA BKN006 OVC012
     FM280500 33010KT P6SM SCT012 BKN025
     FM281300 32011G15KT P6SM BKN120=

USA.gov is the U.S. government's official web portal to all federal, state and local government web resources and services.